Time,TemperatureF,DewpointF,PressureIn,WindDirection,WindDirectionDegrees,WindSpeedMPH,WindSpeedGustMPH,Humidity,HourlyPrecipIn,Conditions,Clouds,dailyrainin,SoftwareType,DateUTC
2013-12-29 00:02:00,-999.0,-99.9,-100.00,East,90,15.0,18.0,-999,-99.99,,,-99.99,,2013-12-29 05:02:00,
2013-12-29 00:12:00,-999.0,-99.9,-100.00,East,81,16.0,20.0,-999,-99.99,,,-99.99,,2013-12-29 05:12:00,
2013-12-29 00:23:00,-999.0,-99.9,-100.00,East,83,15.0,22.0,-999,-99.99,,,-99.99,,2013-12-29 05:23:00,
2013-12-29 00:33:00,-999.0,-99.9,-100.00,East,79,12.0,17.0,-999,-99.99,,,-99.99,,2013-12-29 05:33:00,
2013-12-29 00:43:00,-999.0,-99.9,-100.00,East,81,14.0,18.0,-999,-99.99,,,-99.99,,2013-12-29 05:43:00,
2013-12-29 00:53:00,-999.0,-99.9,-100.00,East,93,13.0,16.0,-999,-99.99,,,-99.99,,2013-12-29 05:53:00,
2013-12-29 01:03:00,-999.0,-99.9,-100.00,East,89,8.0,13.0,-999,-99.99,,,-99.99,,2013-12-29 06:03:00,
2013-12-29 01:12:00,-999.0,-99.9,-100.00,East,89,11.0,14.0,-999,-99.99,,,-99.99,,2013-12-29 06:12:00,
2013-12-29 01:23:00,-999.0,-99.9,-100.00,East,93,12.0,16.0,-999,-99.99,,,-99.99,,2013-12-29 06:23:00,
2013-12-29 01:32:00,-999.0,-99.9,-100.00,ESE,102,12.0,15.0,-999,-99.99,,,-99.99,,2013-12-29 06:32:00,
2013-12-29 01:43:00,-999.0,-99.9,-100.00,East,96,13.0,18.0,-999,-99.99,,,-99.99,,2013-12-29 06:43:00,
2013-12-29 01:52:00,-999.0,-99.9,-100.00,ENE,68,17.0,20.0,-999,-99.99,,,-99.99,,2013-12-29 06:52:00,
2013-12-29 02:02:00,-999.0,-99.9,-100.00,ENE,78,14.0,20.0,-999,-99.99,,,-99.99,,2013-12-29 07:02:00,
2013-12-29 02:12:00,-999.0,-99.9,-100.00,East,88,14.0,19.0,-999,-99.99,,,-99.99,,2013-12-29 07:12:00,
2013-12-29 02:22:00,-999.0,-99.9,-100.00,East,87,15.0,20.0,-999,-99.99,,,-99.99,,2013-12-29 07:22:00,
2013-12-29 02:32:00,-999.0,-99.9,-100.00,East,85,16.0,20.0,-999,-99.99,,,-99.99,,2013-12-29 07:32:00,
2013-12-29 02:42:00,-999.0,-99.9,-100.00,East,95,10.0,16.0,-999,-99.99,,,-99.99,,2013-12-29 07:42:00,
2013-12-29 02:53:00,-999.0,-99.9,-100.00,East,86,16.0,20.0,-999,-99.99,,,-99.99,,2013-12-29 07:53:00,
2013-12-29 03:02:00,-999.0,-99.9,-100.00,East,95,16.0,18.0,-999,-99.99,,,-99.99,,2013-12-29 08:02:00,
2013-12-29 03:12:00,-999.0,-99.9,-100.00,East,82,15.0,20.0,-999,-99.99,,,-99.99,,2013-12-29 08:12:00,
2013-12-29 03:22:00,-999.0,-99.9,-100.00,East,81,15.0,17.0,-999,-99.99,,,-99.99,,2013-12-29 08:22:00,
2013-12-29 03:32:00,-999.0,-99.9,-100.00,East,89,18.0,22.0,-999,-99.99,,,-99.99,,2013-12-29 08:32:00,
2013-12-29 03:42:00,-999.0,-99.9,-100.00,East,86,13.0,21.0,-999,-99.99,,,-99.99,,2013-12-29 08:42:00,
2013-12-29 03:52:00,-999.0,-99.9,-100.00,East,85,14.0,21.0,-999,-99.99,,,-99.99,,2013-12-29 08:52:00,
2013-12-29 04:02:00,-999.0,-99.9,-100.00,East,85,9.0,12.0,-999,-99.99,,,-99.99,,2013-12-29 09:02:00,
2013-12-29 04:12:00,-999.0,-99.9,-100.00,East,93,11.0,14.0,-999,-99.99,,,-99.99,,2013-12-29 09:12:00,
2013-12-29 04:22:00,-999.0,-99.9,-100.00,ENE,75,16.0,18.0,-999,-99.99,,,-99.99,,2013-12-29 09:22:00,
2013-12-29 04:33:00,-999.0,-99.9,-100.00,ENE,61,13.0,17.0,-999,-99.99,,,-99.99,,2013-12-29 09:33:00,
2013-12-29 04:43:00,-999.0,-99.9,-100.00,ENE,69,11.0,16.0,-999,-99.99,,,-99.99,,2013-12-29 09:43:00,
2013-12-29 04:54:00,-999.0,-99.9,-100.00,NE,40,16.0,19.0,-999,-99.99,,,-99.99,,2013-12-29 09:54:00,
2013-12-29 05:03:00,-999.0,-99.9,-100.00,NE,50,14.0,17.0,-999,-99.99,,,-99.99,,2013-12-29 10:03:00,
2013-12-29 05:13:00,-999.0,-99.9,-100.00,NE,48,16.0,19.0,-999,-99.99,,,-99.99,,2013-12-29 10:13:00,
2013-12-29 05:23:00,-999.0,-99.9,-100.00,NE,41,11.0,16.0,-999,-99.99,,,-99.99,,2013-12-29 10:23:00,
2013-12-29 05:33:00,-999.0,-99.9,-100.00,NE,54,13.0,17.0,-999,-99.99,,,-99.99,,2013-12-29 10:33:00,
2013-12-29 05:43:00,-999.0,-99.9,-100.00,NE,47,12.0,16.0,-999,-99.99,,,-99.99,,2013-12-29 10:43:00,
2013-12-29 05:53:00,-999.0,-99.9,-100.00,NE,40,15.0,18.0,-999,-99.99,,,-99.99,,2013-12-29 10:53:00,
2013-12-29 06:02:00,-999.0,-99.9,-100.00,NE,38,15.0,18.0,-999,-99.99,,,-99.99,,2013-12-29 11:02:00,
2013-12-29 06:12:00,-999.0,-99.9,-100.00,NE,45,16.0,21.0,-999,-99.99,,,-99.99,,2013-12-29 11:12:00,
2013-12-29 06:22:00,-999.0,-99.9,-100.00,NE,53,17.0,20.0,-999,-99.99,,,-99.99,,2013-12-29 11:22:00,
2013-12-29 06:33:00,-999.0,-99.9,-100.00,ENE,70,14.0,18.0,-999,-99.99,,,-99.99,,2013-12-29 11:33:00,
2013-12-29 06:43:00,-999.0,-99.9,-100.00,ENE,62,15.0,19.0,-999,-99.99,,,-99.99,,2013-12-29 11:43:00,
2013-12-29 06:53:00,-999.0,-99.9,-100.00,NE,47,13.0,18.0,-999,-99.99,,,-99.99,,2013-12-29 11:53:00,
2013-12-29 07:02:00,-999.0,-99.9,-100.00,NE,46,10.0,15.0,-999,-99.99,,,-99.99,,2013-12-29 12:02:00,
2013-12-29 07:11:00,-999.0,-99.9,-100.00,NE,37,11.0,15.0,-999,-99.99,,,-99.99,,2013-12-29 12:11:00,
2013-12-29 07:22:00,-999.0,-99.9,-100.00,NE,42,9.0,15.0,-999,-99.99,,,-99.99,,2013-12-29 12:22:00,
2013-12-29 07:32:00,-999.0,-99.9,-100.00,NE,38,12.0,19.0,-999,-99.99,,,-99.99,,2013-12-29 12:32:00,
2013-12-29 07:42:00,-999.0,-99.9,-100.00,NE,48,9.0,14.0,-999,-99.99,,,-99.99,,2013-12-29 12:42:00,
2013-12-29 07:52:00,-999.0,-99.9,-100.00,ENE,61,8.0,13.0,-999,-99.99,,,-99.99,,2013-12-29 12:52:00,
2013-12-29 08:02:00,-999.0,-99.9,-100.00,NE,40,9.0,12.0,-999,-99.99,,,-99.99,,2013-12-29 13:02:00,
2013-12-29 08:11:00,-999.0,-99.9,-100.00,NE,38,10.0,12.0,-999,-99.99,,,-99.99,,2013-12-29 13:11:00,
2013-12-29 08:22:00,-999.0,-99.9,-100.00,NE,49,12.0,16.0,-999,-99.99,,,-99.99,,2013-12-29 13:22:00,
2013-12-29 08:32:00,-999.0,-99.9,-100.00,NE,45,10.0,14.0,-999,-99.99,,,-99.99,,2013-12-29 13:32:00,
2013-12-29 08:42:00,-999.0,-99.9,-100.00,NE,37,9.0,13.0,-999,-99.99,,,-99.99,,2013-12-29 13:42:00,
2013-12-29 08:53:00,-999.0,-99.9,-100.00,ENE,59,7.0,11.0,-999,-99.99,,,-99.99,,2013-12-29 13:53:00,
2013-12-29 09:02:00,-999.0,-99.9,-100.00,ENE,66,9.0,11.0,-999,-99.99,,,-99.99,,2013-12-29 14:02:00,
2013-12-29 09:11:00,-999.0,-99.9,-100.00,ENE,59,8.0,11.0,-999,-99.99,,,-99.99,,2013-12-29 14:11:00,
2013-12-29 09:22:00,-999.0,-99.9,-100.00,NE,46,10.0,12.0,-999,-99.99,,,-99.99,,2013-12-29 14:22:00,
2013-12-29 09:32:00,-999.0,-99.9,-100.00,ENE,64,8.0,11.0,-999,-99.99,,,-99.99,,2013-12-29 14:32:00,
2013-12-29 09:42:00,-999.0,-99.9,-100.00,NE,53,7.0,10.0,-999,-99.99,,,-99.99,,2013-12-29 14:42:00,
2013-12-29 09:52:00,-999.0,-99.9,-100.00,ENE,59,9.0,12.0,-999,-99.99,,,-99.99,,2013-12-29 14:52:00,
2013-12-29 10:02:00,-999.0,-99.9,-100.00,ENE,58,9.0,12.0,-999,-99.99,,,-99.99,,2013-12-29 15:02:00,
2013-12-29 10:12:00,-999.0,-99.9,-100.00,NE,51,12.0,14.0,-999,-99.99,,,-99.99,,2013-12-29 15:12:00,
2013-12-29 10:22:00,-999.0,-99.9,-100.00,NE,48,13.0,16.0,-999,-99.99,,,-99.99,,2013-12-29 15:22:00,
2013-12-29 10:33:00,-999.0,-99.9,-100.00,ENE,59,13.0,16.0,-999,-99.99,,,-99.99,,2013-12-29 15:33:00,
2013-12-29 10:44:00,-999.0,-99.9,-100.00,NE,54,12.0,15.0,-999,-99.99,,,-99.99,,2013-12-29 15:44:00,
2013-12-29 10:53:00,-999.0,-99.9,-100.00,NE,52,11.0,14.0,-999,-99.99,,,-99.99,,2013-12-29 15:53:00,
2013-12-29 11:03:00,-999.0,-99.9,-100.00,NE,35,12.0,14.0,-999,-99.99,,,-99.99,,2013-12-29 16:03:00,
2013-12-29 11:13:00,-999.0,-99.9,-100.00,NE,34,13.0,16.0,-999,-99.99,,,-99.99,,2013-12-29 16:13:00,
2013-12-29 11:23:00,-999.0,-99.9,-100.00,NNE,19,12.0,16.0,-999,-99.99,,,-99.99,,2013-12-29 16:23:00,
2013-12-29 11:33:00,-999.0,-99.9,-100.00,NE,45,11.0,14.0,-999,-99.99,,,-99.99,,2013-12-29 16:33:00,
2013-12-29 11:43:00,-999.0,-99.9,-100.00,NNE,30,19.0,22.0,-999,-99.99,,,-99.99,,2013-12-29 16:43:00,
2013-12-29 11:53:00,-999.0,-99.9,-100.00,NE,35,15.0,18.0,-999,-99.99,,,-99.99,,2013-12-29 16:53:00,
2013-12-29 12:02:00,-999.0,-99.9,-100.00,NE,55,14.0,16.0,-999,-99.99,,,-99.99,,2013-12-29 17:02:00,
2013-12-29 12:12:00,-999.0,-99.9,-100.00,NE,44,10.0,15.0,-999,-99.99,,,-99.99,,2013-12-29 17:12:00,
2013-12-29 12:22:00,-999.0,-99.9,-100.00,NE,48,14.0,17.0,-999,-99.99,,,-99.99,,2013-12-29 17:22:00,
2013-12-29 12:33:00,-999.0,-99.9,-100.00,NE,45,11.0,15.0,-999,-99.99,,,-99.99,,2013-12-29 17:33:00,
2013-12-29 12:42:00,-999.0,-99.9,-100.00,NE,53,13.0,17.0,-999,-99.99,,,-99.99,,2013-12-29 17:42:00,
2013-12-29 12:52:00,-999.0,-99.9,-100.00,ENE,57,13.0,14.0,-999,-99.99,,,-99.99,,2013-12-29 17:52:00,
2013-12-29 13:02:00,-999.0,-99.9,-100.00,ENE,57,13.0,14.0,-999,-99.99,,,-99.99,,2013-12-29 18:02:00,
2013-12-29 13:12:00,-999.0,-99.9,-100.00,ENE,57,9.0,14.0,-999,-99.99,,,-99.99,,2013-12-29 18:12:00,
2013-12-29 13:22:00,-999.0,-99.9,-100.00,NNW,330,9.0,11.0,-999,-99.99,,,-99.99,,2013-12-29 18:22:00,
2013-12-29 13:32:00,-999.0,-99.9,-100.00,NNW,338,11.0,15.0,-999,-99.99,,,-99.99,,2013-12-29 18:32:00,
2013-12-29 13:42:00,-999.0,-99.9,-100.00,NNW,343,11.0,14.0,-999,-99.99,,,-99.99,,2013-12-29 18:42:00,
2013-12-29 13:53:00,-999.0,-99.9,-100.00,NNE,15,8.0,13.0,-999,-99.99,,,-99.99,,2013-12-29 18:53:00,
2013-12-29 14:02:00,-999.0,-99.9,-100.00,NNE,21,9.0,10.0,-999,-99.99,,,-99.99,,2013-12-29 19:02:00,
2013-12-29 14:11:00,-999.0,-99.9,-100.00,North,358,8.0,12.0,-999,-99.99,,,-99.99,,2013-12-29 19:11:00,
2013-12-29 14:22:00,-999.0,-99.9,-100.00,NNW,338,9.0,11.0,-999,-99.99,,,-99.99,,2013-12-29 19:22:00,
2013-12-29 14:33:00,-999.0,-99.9,-100.00,North,353,6.0,9.0,-999,-99.99,,,-99.99,,2013-12-29 19:33:00,
2013-12-29 14:43:00,-999.0,-99.9,-100.00,North,359,9.0,11.0,-999,-99.99,,,-99.99,,2013-12-29 19:43:00,
2013-12-29 14:52:00,-999.0,-99.9,-100.00,North,350,6.0,11.0,-999,-99.99,,,-99.99,,2013-12-29 19:52:00,
2013-12-29 15:02:00,-999.0,-99.9,-100.00,NNE,26,12.0,14.0,-999,-99.99,,,-99.99,,2013-12-29 20:02:00,
2013-12-29 15:11:00,-999.0,-99.9,-100.00,NNE,30,13.0,16.0,-999,-99.99,,,-99.99,,2013-12-29 20:11:00,
2013-12-29 15:22:00,-999.0,-99.9,-100.00,North,11,8.0,16.0,-999,-99.99,,,-99.99,,2013-12-29 20:22:00,
2013-12-29 15:32:00,-999.0,-99.9,-100.00,NNW,344,12.0,15.0,-999,-99.99,,,-99.99,,2013-12-29 20:32:00,
2013-12-29 15:42:00,-999.0,-99.9,-100.00,North,350,12.0,15.0,-999,-99.99,,,-99.99,,2013-12-29 20:42:00,
2013-12-29 15:53:00,-999.0,-99.9,-100.00,NNE,31,12.0,15.0,-999,-99.99,,,-99.99,,2013-12-29 20:53:00,
2013-12-29 16:02:00,-999.0,-99.9,-100.00,NNW,339,7.0,11.0,-999,-99.99,,,-99.99,,2013-12-29 21:02:00,
2013-12-29 16:12:00,-999.0,-99.9,-100.00,NNW,334,8.0,15.0,-999,-99.99,,,-99.99,,2013-12-29 21:12:00,
2013-12-29 16:22:00,-999.0,-99.9,-100.00,NW,319,10.0,13.0,-999,-99.99,,,-99.99,,2013-12-29 21:22:00,
2013-12-29 16:33:00,-999.0,-99.9,-100.00,NNW,330,11.0,14.0,-999,-99.99,,,-99.99,,2013-12-29 21:33:00,
2013-12-29 16:43:00,-999.0,-99.9,-100.00,NNW,331,11.0,15.0,-999,-99.99,,,-99.99,,2013-12-29 21:43:00,
2013-12-29 16:54:00,-999.0,-99.9,-100.00,NNW,337,13.0,16.0,-999,-99.99,,,-99.99,,2013-12-29 21:54:00,
2013-12-29 17:03:00,-999.0,-99.9,-100.00,NNW,340,10.0,16.0,-999,-99.99,,,-99.99,,2013-12-29 22:03:00,
2013-12-29 17:12:00,-999.0,-99.9,-100.00,North,359,10.0,15.0,-999,-99.99,,,-99.99,,2013-12-29 22:12:00,
2013-12-29 17:23:00,-999.0,-99.9,-100.00,North,9,11.0,15.0,-999,-99.99,,,-99.99,,2013-12-29 22:23:00,
2013-12-29 17:33:00,-999.0,-99.9,-100.00,NNW,341,10.0,13.0,-999,-99.99,,,-99.99,,2013-12-29 22:33:00,
2013-12-29 17:42:00,-999.0,-99.9,-100.00,NNW,341,11.0,14.0,-999,-99.99,,,-99.99,,2013-12-29 22:42:00,
2013-12-29 17:52:00,-999.0,-99.9,-100.00,NNW,339,11.0,13.0,-999,-99.99,,,-99.99,,2013-12-29 22:52:00,
2013-12-29 18:03:00,-999.0,-99.9,-100.00,NNW,336,13.0,17.0,-999,-99.99,,,-99.99,,2013-12-29 23:03:00,
2013-12-29 18:12:00,-999.0,-99.9,-100.00,North,358,12.0,15.0,-999,-99.99,,,-99.99,,2013-12-29 23:12:00,
2013-12-29 18:22:00,-999.0,-99.9,-100.00,NNW,344,10.0,14.0,-999,-99.99,,,-99.99,,2013-12-29 23:22:00,
2013-12-29 18:33:00,-999.0,-99.9,-100.00,NNW,347,9.0,14.0,-999,-99.99,,,-99.99,,2013-12-29 23:33:00,
2013-12-29 18:42:00,-999.0,-99.9,-100.00,North,350,11.0,16.0,-999,-99.99,,,-99.99,,2013-12-29 23:42:00,
2013-12-29 18:53:00,-999.0,-99.9,-100.00,North,349,12.0,16.0,-999,-99.99,,,-99.99,,2013-12-29 23:53:00,
2013-12-29 19:02:00,-999.0,-99.9,-100.00,North,349,13.0,18.0,-999,-99.99,,,-99.99,,2013-12-30 00:02:00,
2013-12-29 19:12:00,-999.0,-99.9,-100.00,North,353,10.0,15.0,-999,-99.99,,,-99.99,,2013-12-30 00:12:00,
2013-12-29 19:22:00,-999.0,-99.9,-100.00,North,-999,12.0,17.0,-999,-99.99,,,-99.99,,2013-12-30 00:22:00,
2013-12-29 19:33:00,-999.0,-99.9,-100.00,North,2,12.0,19.0,-999,-99.99,,,-99.99,,2013-12-30 00:33:00,
2013-12-29 19:42:00,-999.0,-99.9,-100.00,NNW,346,10.0,14.0,-999,-99.99,,,-99.99,,2013-12-30 00:42:00,
2013-12-29 19:53:00,-999.0,-99.9,-100.00,North,349,12.0,17.0,-999,-99.99,,,-99.99,,2013-12-30 00:53:00,
2013-12-29 20:02:00,-999.0,-99.9,-100.00,North,356,8.0,18.0,-999,-99.99,,,-99.99,,2013-12-30 01:02:00,
2013-12-29 20:12:00,-999.0,-99.9,-100.00,NNW,346,7.0,15.0,-999,-99.99,,,-99.99,,2013-12-30 01:12:00,
2013-12-29 20:22:00,-999.0,-99.9,-100.00,NNW,346,9.0,15.0,-999,-99.99,,,-99.99,,2013-12-30 01:22:00,
2013-12-29 20:32:00,-999.0,-99.9,-100.00,NNW,344,12.0,17.0,-999,-99.99,,,-99.99,,2013-12-30 01:32:00,
2013-12-29 20:43:00,-999.0,-99.9,-100.00,NNW,346,9.0,13.0,-999,-99.99,,,-99.99,,2013-12-30 01:43:00,
2013-12-29 20:52:00,-999.0,-99.9,-100.00,NNW,338,9.0,12.0,-999,-99.99,,,-99.99,,2013-12-30 01:52:00,
2013-12-29 21:02:00,-999.0,-99.9,-100.00,NNW,330,8.0,14.0,-999,-99.99,,,-99.99,,2013-12-30 02:02:00,
2013-12-29 21:12:00,-999.0,-99.9,-100.00,NNW,347,11.0,15.0,-999,-99.99,,,-99.99,,2013-12-30 02:12:00,
2013-12-29 21:22:00,-999.0,-99.9,-100.00,NNW,344,9.0,13.0,-999,-99.99,,,-99.99,,2013-12-30 02:22:00,
2013-12-29 21:32:00,-999.0,-99.9,-100.00,NNW,340,6.0,14.0,-999,-99.99,,,-99.99,,2013-12-30 02:32:00,
2013-12-29 21:42:00,-999.0,-99.9,-100.00,North,350,9.0,13.0,-999,-99.99,,,-99.99,,2013-12-30 02:42:00,
2013-12-29 21:52:00,-999.0,-99.9,-100.00,North,353,8.0,11.0,-999,-99.99,,,-99.99,,2013-12-30 02:52:00,
2013-12-29 22:02:00,-999.0,-99.9,-100.00,NNW,343,8.0,13.0,-999,-99.99,,,-99.99,,2013-12-30 03:02:00,
2013-12-29 22:12:00,-999.0,-99.9,-100.00,NNW,339,7.0,11.0,-999,-99.99,,,-99.99,,2013-12-30 03:12:00,
2013-12-29 22:22:00,-999.0,-99.9,-100.00,NNW,339,9.0,13.0,-999,-99.99,,,-99.99,,2013-12-30 03:22:00,
2013-12-29 22:33:00,-999.0,-99.9,-100.00,NNW,336,9.0,11.0,-999,-99.99,,,-99.99,,2013-12-30 03:33:00,
2013-12-29 22:43:00,-999.0,-99.9,-100.00,NNW,337,8.0,13.0,-999,-99.99,,,-99.99,,2013-12-30 03:43:00,
2013-12-29 22:54:00,-999.0,-99.9,-100.00,NNE,18,6.0,11.0,-999,-99.99,,,-99.99,,2013-12-30 03:54:00,
2013-12-29 23:04:00,-999.0,-99.9,-100.00,NNE,30,10.0,13.0,-999,-99.99,,,-99.99,,2013-12-30 04:04:00,
2013-12-29 23:13:00,-999.0,-99.9,-100.00,NE,38,11.0,13.0,-999,-99.99,,,-99.99,,2013-12-30 04:13:00,
2013-12-29 23:23:00,-999.0,-99.9,-100.00,NE,45,10.0,12.0,-999,-99.99,,,-99.99,,2013-12-30 04:23:00,
2013-12-29 23:33:00,-999.0,-99.9,-100.00,NE,47,9.0,11.0,-999,-99.99,,,-99.99,,2013-12-30 04:33:00,
2013-12-29 23:43:00,-999.0,-99.9,-100.00,NE,42,10.0,12.0,-999,-99.99,,,-99.99,,2013-12-30 04:43:00,
2013-12-29 23:53:00,-999.0,-99.9,-100.00,NE,48,9.0,12.0,-999,-99.99,,,-99.99,,2013-12-30 04:53:00,